Time;durP1;ratioP1;P1;durP2;ratioP2;P2;SDS_P1;SDS_P2;PMS_P1;PMS_P2;Temp;Humidity;BMP_temperature;BMP_pressure;BME280_temperature;BME280_humidity;BME280_pressure;Samples;Min_cycle;Max_cycle;Signal;HPM_P1;HPM_P2
2023/02/17 00:02:14;;;;;;;10.83;8.30;;;11.20;94.50;;;;;;5030618;28;20551;-73
2023/02/17 00:05:00;;;;;;;8.37;6.67;;;11.10;95.30;;;;;;5035190;28;21051;-73
2023/02/17 00:07:45;;;;;;;9.43;7.13;;;11.20;96.20;;;;;;5040917;28;20969;-73
2023/02/17 00:10:32;;;;;;;14.17;8.20;;;11.10;97.20;;;;;;5024978;28;20493;-73
2023/02/17 00:13:17;;;;;;;16.37;8.33;;;11.00;97.20;;;;;;5029260;28;20809;-73
2023/02/17 00:16:07;;;;;;;11.23;8.00;;;11.10;97.50;;;;;;5025428;28;20504;-73
2023/02/17 00:18:54;;;;;;;19.13;8.20;;;11.00;97.10;;;;;;5046304;28;20424;-73
2023/02/17 00:21:40;;;;;;;12.83;7.17;;;11.00;97.20;;;;;;5034567;28;20416;-73
2023/02/17 00:24:27;;;;;;;16.07;7.57;;;11.00;96.50;;;;;;5019711;28;20567;-73
2023/02/17 00:27:14;;;;;;;9.23;7.30;;;11.00;96.00;;;;;;5030317;28;20429;-73
2023/02/17 00:30:00;;;;;;;11.30;7.40;;;11.10;95.70;;;;;;5023199;28;20970;-73
2023/02/17 00:32:46;;;;;;;13.37;8.07;;;11.10;96.50;;;;;;5032574;28;20433;-73
2023/02/17 00:35:31;;;;;;;11.57;7.60;;;11.10;96.80;;;;;;5040040;28;20956;-73
2023/02/17 00:38:17;;;;;;;15.70;7.27;;;11.10;97.00;;;;;;5030032;28;20424;-73
2023/02/17 00:41:03;;;;;;;15.73;7.80;;;11.20;96.60;;;;;;5038507;28;20440;-73
2023/02/17 00:43:50;;;;;;;11.83;7.40;;;11.20;96.80;;;;;;5031365;28;20482;-73
2023/02/17 00:46:36;;;;;;;21.13;9.70;;;11.20;97.50;;;;;;5034727;28;20429;-73
2023/02/17 00:49:23;;;;;;;12.83;7.03;;;11.20;98.40;;;;;;5024676;28;20441;-73
2023/02/17 00:52:09;;;;;;;11.57;6.97;;;11.10;99.90;;;;;;5036497;28;20460;-73
2023/02/17 00:54:54;;;;;;;12.20;7.20;;;11.10;98.30;;;;;;5028303;28;20615;-73
2023/02/17 00:57:40;;;;;;;10.93;7.13;;;11.10;98.50;;;;;;5023787;28;20577;-73
2023/02/17 01:00:27;;;;;;;16.50;8.07;;;11.10;98.60;;;;;;5025415;28;20475;-73
2023/02/17 01:03:13;;;;;;;10.97;7.17;;;11.10;98.60;;;;;;5024163;28;20947;-73
2023/02/17 01:05:59;;;;;;;9.13;7.20;;;11.10;97.90;;;;;;5020084;28;20468;-73
2023/02/17 01:08:45;;;;;;;10.30;7.30;;;11.20;98.40;;;;;;5031750;28;20582;-73
2023/02/17 01:11:33;;;;;;;12.83;7.93;;;11.20;98.70;;;;;;5031149;28;20433;-73
2023/02/17 01:14:18;;;;;;;27.87;8.40;;;11.10;99.50;;;;;;5020937;28;20451;-73
2023/02/17 01:17:05;;;;;;;11.70;7.33;;;11.00;99.90;;;;;;5031021;28;20428;-73
2023/02/17 01:19:51;;;;;;;12.60;6.70;;;11.00;99.90;;;;;;5028945;28;20807;-73
2023/02/17 01:22:39;;;;;;;13.67;7.73;;;11.00;99.90;;;;;;5028623;28;20425;-73
2023/02/17 01:25:24;;;;;;;13.30;7.83;;;11.00;99.90;;;;;;5036260;28;20477;-73
2023/02/17 01:28:14;;;;;;;13.43;6.90;;;10.90;99.90;;;;;;5019427;28;20464;-73
2023/02/17 01:31:05;;;;;;;16.80;7.50;;;10.90;99.90;;;;;;5030277;28;20433;-73
2023/02/17 01:33:52;;;;;;;13.53;8.03;;;10.90;99.90;;;;;;5035211;28;20468;-73
2023/02/17 01:36:38;;;;;;;12.20;7.90;;;10.90;99.90;;;;;;5027912;28;20487;-73
2023/02/17 01:39:24;;;;;;;18.33;8.30;;;10.90;99.90;;;;;;5019021;28;20426;-73
2023/02/17 01:42:15;;;;;;;14.63;6.73;;;10.80;99.90;;;;;;5031055;28;20424;-73
2023/02/17 01:45:46;;;;;;;11.80;8.00;;;10.70;99.90;;;;;;5026671;28;20854;-73
2023/02/17 01:48:38;;;;;;;9.53;7.13;;;10.70;99.90;;;;;;5009468;28;20900;-73
2023/02/17 01:51:28;;;;;;;13.60;6.93;;;10.70;99.90;;;;;;5040782;28;20444;-73
2023/02/17 01:54:20;;;;;;;11.17;7.30;;;10.70;99.90;;;;;;5029697;28;20818;-73
2023/02/17 01:57:06;;;;;;;14.30;7.30;;;10.80;99.90;;;;;;5036922;28;20475;-73
2023/02/17 01:59:52;;;;;;;11.77;6.83;;;10.70;99.90;;;;;;5026415;28;20515;-73
2023/02/17 02:02:38;;;;;;;11.13;7.10;;;10.70;99.90;;;;;;5030668;28;20421;-73
2023/02/17 02:05:23;;;;;;;9.67;7.20;;;10.70;99.90;;;;;;5031251;28;20480;-73
2023/02/17 02:08:11;;;;;;;11.43;7.33;;;10.70;99.90;;;;;;5031551;28;20476;-73
2023/02/17 02:10:57;;;;;;;10.20;6.73;;;10.70;99.90;;;;;;5030332;28;20432;-73
2023/02/17 02:13:43;;;;;;;9.37;7.00;;;10.60;99.90;;;;;;5030687;28;20456;-73
2023/02/17 02:16:37;;;;;;;11.27;7.00;;;10.60;99.90;;;;;;5022845;28;20388;-73
2023/02/17 02:19:46;;;;;;;13.67;6.50;;;10.50;99.90;;;;;;5031997;28;20443;-73
2023/02/17 02:23:05;;;;;;;12.83;8.20;;;10.50;99.90;;;;;;5033371;28;20451;-73
2023/02/17 02:26:14;;;;;;;14.47;7.60;;;10.50;99.90;;;;;;5031107;28;21020;-73
2023/02/17 02:29:24;;;;;;;13.57;7.27;;;10.50;99.90;;;;;;5030933;28;20453;-73
2023/02/17 02:32:39;;;;;;;12.77;6.87;;;10.50;99.90;;;;;;5017070;28;20432;-73
2023/02/17 02:35:34;;;;;;;12.40;8.37;;;10.60;99.90;;;;;;5059955;22;20497;-74
2023/02/17 02:38:25;;;;;;;10.47;7.17;;;10.50;99.90;;;;;;5056067;28;20565;-73
2023/02/17 02:41:14;;;;;;;13.23;7.30;;;10.50;99.90;;;;;;5062739;28;20450;-74
2023/02/17 02:44:04;;;;;;;19.87;8.10;;;10.50;99.90;;;;;;5065033;28;20431;-73
2023/02/17 02:46:57;;;;;;;10.60;7.40;;;10.50;99.90;;;;;;5065207;28;20474;-74
2023/02/17 02:49:44;;;;;;;12.03;7.53;;;10.50;99.90;;;;;;5065520;28;20447;-74
2023/02/17 02:52:39;;;;;;;16.23;9.17;;;10.60;99.90;;;;;;5063124;28;20521;-74
2023/02/17 02:55:37;;;;;;;9.93;7.70;;;10.60;99.90;;;;;;5059506;28;20454;-75
2023/02/17 02:58:33;;;;;;;10.70;6.93;;;10.70;99.90;;;;;;5067433;28;20442;-74
2023/02/17 03:01:29;;;;;;;11.63;7.57;;;10.70;99.90;;;;;;5065056;28;20587;-74
2023/02/17 03:04:20;;;;;;;14.77;7.70;;;10.80;99.90;;;;;;5060762;28;20442;-74
2023/02/17 03:07:20;;;;;;;18.27;7.30;;;10.80;99.90;;;;;;5063267;28;20533;-74
2023/02/17 03:10:06;;;;;;;12.57;7.50;;;10.80;99.90;;;;;;5061821;28;20439;-73
2023/02/17 03:12:52;;;;;;;14.33;7.70;;;10.80;99.90;;;;;;5063092;28;20488;-73
2023/02/17 03:15:38;;;;;;;14.03;7.73;;;10.80;99.90;;;;;;5070262;28;20866;-74
2023/02/17 03:18:23;;;;;;;11.80;7.57;;;10.80;99.90;;;;;;5060175;28;20553;-73
2023/02/17 03:21:14;;;;;;;19.30;7.60;;;10.80;99.90;;;;;;5067915;28;20438;-73
2023/02/17 03:24:01;;;;;;;13.87;7.97;;;10.70;99.90;;;;;;5061358;28;21398;-75
2023/02/17 03:26:47;;;;;;;13.20;7.40;;;10.80;99.90;;;;;;5062957;28;20524;-73
2023/02/17 03:29:32;;;;;;;9.93;6.70;;;10.80;99.90;;;;;;5066819;28;20522;-74
2023/02/17 03:32:18;;;;;;;11.80;6.83;;;10.80;99.90;;;;;;5062399;28;20569;-73
2023/02/17 03:35:04;;;;;;;10.23;6.67;;;10.80;99.90;;;;;;5072799;28;20797;-74
2023/02/17 03:37:49;;;;;;;11.27;6.43;;;10.80;99.90;;;;;;5060826;28;20896;-74
2023/02/17 03:40:36;;;;;;;8.30;6.50;;;10.90;99.90;;;;;;5075019;28;20438;-73
2023/02/17 03:43:22;;;;;;;20.67;7.30;;;10.90;99.90;;;;;;5072690;28;20435;-73
2023/02/17 03:46:11;;;;;;;10.50;6.83;;;10.90;99.90;;;;;;5064251;28;20478;-77
2023/02/17 03:48:57;;;;;;;9.67;6.30;;;11.00;99.90;;;;;;5068189;28;20459;-74
2023/02/17 03:51:43;;;;;;;10.13;5.77;;;10.90;99.90;;;;;;5070293;28;20577;-74
2023/02/17 03:54:28;;;;;;;9.77;6.60;;;11.00;99.90;;;;;;5066547;28;20446;-73
2023/02/17 03:57:15;;;;;;;9.00;6.03;;;11.00;99.90;;;;;;5058087;28;20442;-75
2023/02/17 04:00:01;;;;;;;10.50;6.50;;;11.00;99.90;;;;;;5070991;28;20439;-74
2023/02/17 04:02:47;;;;;;;11.90;7.10;;;10.90;99.90;;;;;;5069299;28;20446;-74
2023/02/17 04:05:32;;;;;;;9.60;6.60;;;11.00;99.90;;;;;;5072057;28;21018;-74
2023/02/17 04:08:18;;;;;;;13.37;6.90;;;11.00;99.90;;;;;;5073027;28;20484;-73
2023/02/17 04:11:05;;;;;;;12.83;6.40;;;11.00;99.90;;;;;;5074502;28;20423;-74
2023/02/17 04:13:52;;;;;;;10.50;6.90;;;11.00;99.90;;;;;;5066603;28;20479;-73
2023/02/17 04:16:38;;;;;;;13.47;7.20;;;11.00;99.90;;;;;;5067653;28;20429;-73
2023/02/17 04:19:24;;;;;;;13.30;6.87;;;10.90;99.90;;;;;;5082866;28;20433;-74
2023/02/17 04:22:10;;;;;;;9.27;6.87;;;10.90;99.90;;;;;;5065918;28;21150;-75
2023/02/17 04:24:55;;;;;;;15.63;7.47;;;10.90;99.90;;;;;;5061396;28;20439;-73
2023/02/17 04:27:41;;;;;;;12.17;6.90;;;10.80;99.90;;;;;;5065092;28;20454;-73
2023/02/17 04:30:28;;;;;;;9.20;6.63;;;10.90;99.90;;;;;;5069973;28;20493;-74
2023/02/17 04:33:14;;;;;;;15.40;6.57;;;10.90;99.90;;;;;;5069086;28;20909;-73
2023/02/17 04:36:00;;;;;;;17.27;6.80;;;10.90;99.90;;;;;;5064591;28;20493;-73
2023/02/17 04:38:46;;;;;;;12.03;7.30;;;10.90;99.90;;;;;;5071273;28;20584;-73
2023/02/17 04:41:31;;;;;;;13.93;6.60;;;10.90;99.90;;;;;;5069436;28;20447;-73
2023/02/17 04:44:17;;;;;;;10.63;6.70;;;10.90;99.90;;;;;;5068150;28;20590;-74
2023/02/17 04:47:04;;;;;;;15.10;6.60;;;10.90;99.90;;;;;;5062133;28;20624;-72
2023/02/17 04:49:49;;;;;;;8.23;6.53;;;10.90;99.90;;;;;;5070860;28;20955;-74
2023/02/17 04:52:35;;;;;;;12.47;5.97;;;10.90;99.90;;;;;;5074197;28;20917;-75
2023/02/17 04:55:20;;;;;;;7.63;5.80;;;10.80;99.90;;;;;;5069172;28;20459;-74
2023/02/17 04:58:06;;;;;;;12.27;7.03;;;10.80;99.90;;;;;;5056051;28;20422;-74
2023/02/17 05:00:52;;;;;;;16.50;8.50;;;10.80;99.90;;;;;;5065715;28;20466;-77
2023/02/17 05:03:39;;;;;;;14.23;6.30;;;10.80;99.90;;;;;;5060635;28;20449;-73
2023/02/17 05:06:24;;;;;;;12.13;6.80;;;10.80;99.90;;;;;;5062523;28;20598;-73
2023/02/17 05:09:10;;;;;;;10.87;7.17;;;10.70;99.90;;;;;;5070494;28;20441;-73
2023/02/17 05:11:56;;;;;;;12.17;6.70;;;10.80;99.90;;;;;;5067698;28;20815;-74
2023/02/17 05:14:41;;;;;;;8.57;5.73;;;10.70;99.90;;;;;;5060304;28;20467;-75
2023/02/17 05:17:27;;;;;;;15.90;6.80;;;10.70;99.90;;;;;;5068084;28;20797;-73
2023/02/17 05:20:14;;;;;;;8.70;6.00;;;10.70;99.90;;;;;;5078691;28;20592;-74
2023/02/17 05:22:59;;;;;;;11.20;6.97;;;10.70;99.90;;;;;;5066673;28;20537;-73
2023/02/17 05:25:45;;;;;;;14.53;7.57;;;10.70;99.90;;;;;;5065133;28;20456;-75
2023/02/17 05:28:31;;;;;;;9.80;6.50;;;10.70;99.90;;;;;;5067756;28;20455;-74
2023/02/17 05:31:17;;;;;;;11.10;6.97;;;10.70;99.90;;;;;;5071363;28;20438;-74
2023/02/17 05:34:03;;;;;;;10.87;6.97;;;10.70;99.90;;;;;;5067340;28;20443;-75
2023/02/17 05:36:50;;;;;;;19.63;7.70;;;10.70;99.90;;;;;;5072687;28;20483;-74
2023/02/17 05:39:36;;;;;;;11.10;5.90;;;10.70;99.90;;;;;;5079260;28;20447;-74
2023/02/17 05:42:21;;;;;;;9.63;5.83;;;10.70;99.90;;;;;;5081501;28;20553;-74
2023/02/17 05:45:07;;;;;;;9.00;6.17;;;10.70;99.90;;;;;;5070227;28;20486;-74
2023/02/17 05:47:53;;;;;;;15.33;6.97;;;10.70;99.90;;;;;;5076009;28;20415;-74
2023/02/17 05:50:39;;;;;;;10.43;7.13;;;10.70;99.90;;;;;;5071770;28;20554;-75
2023/02/17 05:53:26;;;;;;;22.93;7.20;;;10.70;99.90;;;;;;5076782;28;20449;-73
2023/02/17 05:56:12;;;;;;;18.73;6.70;;;10.70;99.90;;;;;;5071431;28;20450;-74
2023/02/17 05:58:59;;;;;;;11.30;6.40;;;10.70;99.90;;;;;;5083190;28;20422;-78
2023/02/17 06:01:44;;;;;;;9.57;6.63;;;10.80;99.90;;;;;;5079178;28;20433;-74
2023/02/17 06:04:30;;;;;;;10.57;6.50;;;10.70;99.90;;;;;;5066228;28;21013;-73
2023/02/17 06:07:16;;;;;;;9.80;6.33;;;10.70;99.90;;;;;;5075223;28;21003;-74
2023/02/17 06:10:03;;;;;;;9.87;6.10;;;10.80;99.90;;;;;;5062178;28;20517;-74
2023/02/17 06:12:49;;;;;;;10.70;6.43;;;10.80;99.90;;;;;;5067897;28;20458;-74
2023/02/17 06:15:34;;;;;;;10.37;6.10;;;10.80;99.90;;;;;;5061453;28;20565;-74
2023/02/17 06:18:20;;;;;;;11.13;6.70;;;10.70;99.90;;;;;;5064862;28;20446;-74
2023/02/17 06:21:06;;;;;;;13.70;6.80;;;10.70;99.90;;;;;;5063626;28;20991;-74
2023/02/17 06:23:51;;;;;;;10.40;5.80;;;10.70;99.90;;;;;;5063714;28;20947;-77
2023/02/17 06:26:38;;;;;;;10.00;6.80;;;10.70;99.90;;;;;;5065698;28;21017;-74
2023/02/17 06:29:24;;;;;;;8.30;6.17;;;10.70;99.90;;;;;;5068408;28;21013;-75
2023/02/17 06:32:09;;;;;;;17.47;7.70;;;10.60;99.90;;;;;;5064140;28;20643;-74
2023/02/17 06:34:55;;;;;;;8.73;5.63;;;10.60;99.90;;;;;;5065762;28;20458;-74
2023/02/17 06:37:40;;;;;;;10.97;6.60;;;10.70;99.90;;;;;;5060464;28;20800;-75
2023/02/17 06:40:26;;;;;;;12.00;6.27;;;10.60;99.90;;;;;;5068590;28;20480;-75
2023/02/17 06:43:13;;;;;;;10.27;6.20;;;10.60;99.90;;;;;;5064535;28;20558;-74
2023/02/17 06:45:59;;;;;;;7.67;6.03;;;10.60;99.90;;;;;;5064966;28;20544;-73
2023/02/17 06:48:45;;;;;;;10.60;6.30;;;10.60;99.90;;;;;;5062283;28;20602;-75
2023/02/17 06:51:31;;;;;;;9.47;6.33;;;10.60;99.90;;;;;;5067222;28;20986;-74
2023/02/17 06:54:16;;;;;;;17.60;7.30;;;10.60;99.90;;;;;;5058053;28;20573;-73
2023/02/17 06:57:02;;;;;;;12.37;6.83;;;10.60;99.90;;;;;;5061820;28;20533;-74
2023/02/17 06:59:49;;;;;;;10.57;6.43;;;10.60;99.90;;;;;;5062161;28;20446;-75
2023/02/17 07:02:37;;;;;;;12.00;6.77;;;10.60;99.90;;;;;;5059730;28;20458;-75
2023/02/17 07:05:23;;;;;;;8.50;6.10;;;10.60;99.90;;;;;;5073477;28;20911;-74
2023/02/17 07:08:08;;;;;;;11.27;6.43;;;10.70;99.90;;;;;;5073641;28;21141;-74
2023/02/17 07:10:54;;;;;;;11.63;6.70;;;10.60;99.90;;;;;;5068839;28;20437;-74
2023/02/17 07:13:41;;;;;;;11.97;6.30;;;10.60;99.90;;;;;;5061801;28;20965;-73
2023/02/17 07:16:28;;;;;;;8.70;6.50;;;10.60;99.90;;;;;;5070807;28;20493;-73
2023/02/17 07:19:13;;;;;;;13.20;7.17;;;10.60;99.90;;;;;;5067798;28;20452;-73
2023/02/17 07:21:59;;;;;;;9.57;6.53;;;10.50;99.90;;;;;;5065112;28;20505;-73
2023/02/17 07:24:44;;;;;;;13.87;6.07;;;10.50;99.90;;;;;;5062226;28;20454;-75
2023/02/17 07:27:30;;;;;;;8.40;6.40;;;10.50;99.90;;;;;;5071268;28;20873;-74
2023/02/17 07:30:16;;;;;;;10.77;8.13;;;10.50;99.90;;;;;;5062347;28;20443;-76
2023/02/17 07:33:03;;;;;;;25.50;13.37;;;10.50;99.90;;;;;;5065931;28;20963;-73
2023/02/17 07:35:48;;;;;;;23.57;13.90;;;10.40;99.90;;;;;;5069954;28;20453;-73
2023/02/17 07:38:35;;;;;;;11.37;8.90;;;10.50;99.90;;;;;;5072425;28;20517;-74
2023/02/17 07:41:23;;;;;;;16.20;8.20;;;10.50;99.90;;;;;;5068728;28;20819;-74
2023/02/17 07:44:09;;;;;;;15.43;8.20;;;10.40;99.90;;;;;;5073462;28;20949;-73
2023/02/17 07:46:55;;;;;;;11.70;7.90;;;10.40;99.90;;;;;;5083875;28;20485;-74
2023/02/17 07:49:42;;;;;;;10.50;7.50;;;10.40;99.90;;;;;;5085258;28;20523;-74
2023/02/17 07:52:27;;;;;;;12.50;7.10;;;10.40;99.90;;;;;;5069520;28;20552;-74
2023/02/17 07:55:13;;;;;;;9.70;6.07;;;10.40;99.90;;;;;;5079727;28;20433;-74
2023/02/17 07:57:59;;;;;;;22.50;11.93;;;10.40;99.90;;;;;;5083520;28;20418;-72
2023/02/17 08:00:45;;;;;;;15.00;7.33;;;10.40;99.90;;;;;;5068948;28;20582;-75
2023/02/17 08:03:31;;;;;;;9.77;7.53;;;10.30;99.90;;;;;;5070005;28;20501;-74
2023/02/17 08:06:20;;;;;;;10.40;6.10;;;10.40;99.90;;;;;;5078699;28;20640;-74
2023/02/17 08:15:18;;;;;;;13.70;8.37;;;10.40;99.90;;;;;;5073922;28;20949;-72
2023/02/17 08:18:05;;;;;;;8.97;6.33;;;10.50;99.90;;;;;;5077780;28;20550;-73
2023/02/17 08:20:51;;;;;;;14.97;7.43;;;10.50;99.90;;;;;;5077238;28;20781;-74
2023/02/17 08:23:38;;;;;;;9.53;6.57;;;10.50;99.90;;;;;;5059047;28;20442;-74
2023/02/17 08:26:24;;;;;;;8.07;6.40;;;10.50;99.90;;;;;;5060112;28;20622;-75
2023/02/17 08:29:10;;;;;;;10.10;5.80;;;10.50;99.90;;;;;;5065643;28;20454;-74
2023/02/17 08:31:55;;;;;;;11.50;5.43;;;10.60;99.90;;;;;;5063590;28;20454;-75
2023/02/17 08:34:41;;;;;;;12.87;6.17;;;10.60;99.90;;;;;;5070738;28;20397;-73
2023/02/17 08:37:29;;;;;;;8.23;5.80;;;10.60;99.90;;;;;;5072675;28;20465;-74
2023/02/17 08:40:16;;;;;;;6.80;4.73;;;10.60;99.90;;;;;;5073877;28;21080;-73
2023/02/17 08:43:01;;;;;;;8.50;5.67;;;10.60;99.90;;;;;;5070854;28;20451;-73
2023/02/17 08:45:47;;;;;;;8.30;4.83;;;10.60;99.90;;;;;;5077686;28;20566;-73
2023/02/17 08:48:33;;;;;;;6.17;5.07;;;10.60;99.90;;;;;;5068165;28;20951;-73
2023/02/17 08:51:22;;;;;;;7.73;5.30;;;10.60;99.90;;;;;;5070930;28;20940;-73
2023/02/17 08:54:09;;;;;;;13.53;6.10;;;10.60;99.90;;;;;;5072750;28;20883;-74
2023/02/17 08:56:57;;;;;;;7.73;5.50;;;10.60;99.90;;;;;;5071913;28;20412;-73
2023/02/17 08:59:44;;;;;;;11.30;5.37;;;10.60;99.90;;;;;;5077943;28;20835;-73
2023/02/17 09:02:29;;;;;;;9.30;5.33;;;10.60;99.90;;;;;;5063585;28;20442;-74
2023/02/17 09:05:15;;;;;;;9.40;6.27;;;10.70;99.90;;;;;;5075134;28;20441;-73
2023/02/17 09:08:00;;;;;;;8.03;5.33;;;10.60;99.90;;;;;;5075808;28;20993;-73
2023/02/17 09:10:46;;;;;;;9.40;5.40;;;10.60;99.90;;;;;;5071770;28;20562;-73
2023/02/17 09:13:34;;;;;;;14.57;5.33;;;10.70;99.90;;;;;;5070425;28;20607;-73
2023/02/17 09:16:20;;;;;;;8.90;5.53;;;10.70;99.90;;;;;;5073322;28;20448;-74
2023/02/17 09:19:06;;;;;;;7.07;4.67;;;10.70;99.90;;;;;;5079106;28;20468;-73
2023/02/17 09:21:52;;;;;;;7.63;5.40;;;10.70;99.90;;;;;;5066529;28;20856;-73
2023/02/17 09:24:38;;;;;;;6.67;4.67;;;10.70;99.90;;;;;;5070890;28;20533;-73
2023/02/17 09:27:24;;;;;;;9.57;5.37;;;10.60;99.90;;;;;;5073696;28;20932;-73
2023/02/17 09:30:12;;;;;;;7.03;4.47;;;10.60;99.90;;;;;;5080622;28;20422;-73
2023/02/17 09:32:58;;;;;;;8.47;4.73;;;10.60;99.90;;;;;;5067560;28;20537;-74
2023/02/17 09:35:44;;;;;;;5.83;4.60;;;10.60;99.90;;;;;;5069523;28;20473;-73
2023/02/17 09:38:30;;;;;;;11.03;6.03;;;10.70;99.90;;;;;;5074849;28;20545;-74
2023/02/17 09:41:19;;;;;;;14.90;7.30;;;10.60;99.90;;;;;;5077406;28;20451;-73
2023/02/17 09:44:06;;;;;;;15.67;8.20;;;10.70;99.90;;;;;;5078896;28;20517;-73
2023/02/17 09:47:01;;;;;;;9.00;6.50;;;10.70;99.90;;;;;;5086652;28;20531;-73
2023/02/17 09:49:51;;;;;;;6.27;5.57;;;10.70;99.90;;;;;;5073292;28;20414;-73
2023/02/17 09:52:42;;;;;;;6.40;4.77;;;10.70;99.90;;;;;;5072014;28;20558;-73
2023/02/17 09:55:32;;;;;;;5.23;4.70;;;10.70;99.90;;;;;;5068448;28;20529;-73
2023/02/17 09:58:23;;;;;;;6.93;4.67;;;10.70;99.90;;;;;;5083186;28;20425;-73
2023/02/17 10:01:15;;;;;;;5.70;4.40;;;10.60;99.90;;;;;;5055188;28;20451;-73
2023/02/17 10:04:08;;;;;;;8.40;4.60;;;10.70;99.90;;;;;;5069908;28;20415;-73
2023/02/17 10:07:00;;;;;;;5.57;4.93;;;10.70;99.90;;;;;;5076300;28;20466;-73
2023/02/17 10:09:50;;;;;;;7.23;5.30;;;10.70;99.90;;;;;;5068537;28;20950;-73
2023/02/17 10:12:40;;;;;;;9.40;5.00;;;10.70;99.90;;;;;;5078236;28;20418;-73
2023/02/17 10:15:30;;;;;;;7.73;4.70;;;10.80;99.90;;;;;;5077348;28;20457;-73
2023/02/17 10:18:19;;;;;;;5.30;4.60;;;10.70;99.90;;;;;;5077048;28;20963;-74
2023/02/17 10:21:10;;;;;;;5.83;4.47;;;10.70;99.90;;;;;;5069281;28;20447;-73
2023/02/17 10:23:56;;;;;;;8.07;4.93;;;10.70;99.90;;;;;;5070154;28;20426;-73
2023/02/17 10:26:55;;;;;;;7.47;4.83;;;10.80;99.90;;;;;;5079807;28;20825;-73
2023/02/17 10:29:50;;;;;;;5.87;4.80;;;10.80;99.90;;;;;;5079051;28;20553;-73
2023/02/17 10:32:46;;;;;;;6.37;4.73;;;10.80;99.90;;;;;;5066953;28;20793;-73
2023/02/17 10:35:48;;;;;;;9.47;4.50;;;10.90;99.90;;;;;;5074880;28;20536;-73
2023/02/17 10:38:49;;;;;;;5.77;4.77;;;10.90;99.90;;;;;;5076054;28;20441;-73
2023/02/17 10:41:39;;;;;;;9.37;4.67;;;11.00;99.90;;;;;;5056882;28;20450;-73
2023/02/17 10:44:26;;;;;;;4.70;4.20;;;10.90;99.90;;;;;;5057771;28;20875;-73
2023/02/17 10:47:14;;;;;;;5.83;4.43;;;10.90;99.90;;;;;;5064537;28;20486;-73
2023/02/17 10:50:01;;;;;;;6.37;4.80;;;10.90;99.90;;;;;;5074571;28;20938;-73
2023/02/17 10:52:47;;;;;;;7.43;5.07;;;10.90;99.90;;;;;;5077076;28;20415;-73
2023/02/17 10:55:38;;;;;;;6.07;5.20;;;10.90;99.90;;;;;;5079194;28;20451;-73
2023/02/17 10:58:31;;;;;;;6.13;4.43;;;10.90;99.90;;;;;;5073372;28;20931;-74
2023/02/17 11:01:17;;;;;;;5.93;4.90;;;10.90;99.90;;;;;;5071400;28;20589;-74
2023/02/17 11:04:04;;;;;;;11.40;6.60;;;10.90;99.90;;;;;;5070334;28;20455;-74
2023/02/17 11:06:52;;;;;;;6.67;5.20;;;11.00;99.90;;;;;;5070609;28;20508;-74
2023/02/17 11:09:44;;;;;;;7.60;5.50;;;11.00;99.90;;;;;;5066232;28;20446;-73
2023/02/17 11:12:38;;;;;;;9.63;5.80;;;11.00;99.90;;;;;;5071483;28;20476;-73
2023/02/17 11:15:28;;;;;;;8.80;5.30;;;11.00;99.90;;;;;;5067595;28;20461;-74
2023/02/17 11:18:21;;;;;;;5.23;4.70;;;11.00;99.90;;;;;;5060443;28;20451;-72
2023/02/17 11:21:10;;;;;;;6.33;4.60;;;11.00;99.90;;;;;;5067192;28;20475;-74
2023/02/17 11:23:59;;;;;;;5.13;4.43;;;11.00;99.90;;;;;;5060332;28;20439;-74
2023/02/17 11:26:56;;;;;;;5.83;4.83;;;11.10;99.90;;;;;;5071001;28;20458;-73
2023/02/17 11:29:43;;;;;;;6.90;4.77;;;11.10;99.90;;;;;;5059325;28;20458;-73
2023/02/17 11:32:31;;;;;;;7.70;6.57;;;11.10;99.90;;;;;;5070288;28;20918;-73
2023/02/17 11:35:28;;;;;;;7.83;6.47;;;11.10;99.90;;;;;;5072855;28;20432;-73
2023/02/17 11:38:16;;;;;;;6.23;5.43;;;11.20;99.90;;;;;;5067428;28;20922;-73
2023/02/17 11:41:03;;;;;;;7.77;4.93;;;11.20;99.90;;;;;;5067769;28;20835;-73
2023/02/17 11:43:54;;;;;;;5.80;4.37;;;11.20;99.90;;;;;;5067141;28;20433;-73
2023/02/17 11:46:48;;;;;;;6.23;4.87;;;11.20;99.90;;;;;;5072564;28;20478;-73
2023/02/17 11:49:54;;;;;;;5.10;4.13;;;11.20;99.90;;;;;;5063859;28;20421;-73
2023/02/17 11:52:55;;;;;;;7.20;4.57;;;11.30;99.90;;;;;;5073722;28;20479;-73
2023/02/17 11:55:58;;;;;;;4.90;3.87;;;11.30;99.90;;;;;;5069362;28;20458;-73
2023/02/17 11:59:21;;;;;;;4.43;3.80;;;11.30;99.90;;;;;;5071593;28;20439;-74
2023/02/17 12:02:30;;;;;;;4.73;3.87;;;11.30;99.90;;;;;;5060387;28;20430;-73
2023/02/17 12:05:25;;;;;;;5.17;4.37;;;11.30;99.90;;;;;;5065414;28;20590;-74
2023/02/17 12:08:20;;;;;;;9.80;4.13;;;11.30;99.90;;;;;;5068124;28;20475;-73
2023/02/17 12:11:18;;;;;;;7.10;3.70;;;11.40;99.90;;;;;;5062172;28;20455;-73
2023/02/17 12:14:17;;;;;;;5.30;3.90;;;11.40;99.90;;;;;;5072967;28;20449;-74
2023/02/17 12:17:12;;;;;;;5.10;4.00;;;11.50;99.90;;;;;;5067923;28;21089;-73
2023/02/17 12:20:10;;;;;;;5.43;3.80;;;11.50;99.90;;;;;;5064610;28;20529;-73
2023/02/17 12:23:05;;;;;;;3.90;3.47;;;11.50;99.90;;;;;;5059293;28;20454;-73
2023/02/17 12:25:57;;;;;;;3.90;3.43;;;11.60;99.90;;;;;;5078727;28;21000;-73
2023/02/17 12:29:02;;;;;;;4.60;3.50;;;11.50;99.90;;;;;;5072015;28;20482;-73
2023/02/17 12:32:06;;;;;;;4.43;3.47;;;11.60;99.90;;;;;;5067609;28;20458;-73
2023/02/17 12:34:58;;;;;;;3.97;3.10;;;11.70;99.90;;;;;;5072671;28;20405;-73
2023/02/17 12:37:50;;;;;;;3.47;3.03;;;11.70;99.90;;;;;;5055696;28;20486;-73
2023/02/17 12:40:39;;;;;;;4.80;3.10;;;11.70;99.90;;;;;;5067038;28;20437;-73
2023/02/17 12:43:29;;;;;;;5.10;3.60;;;11.70;99.90;;;;;;5054860;28;20430;-73
2023/02/17 12:46:17;;;;;;;4.13;2.83;;;11.70;99.90;;;;;;5066088;28;20569;-73
2023/02/17 12:49:06;;;;;;;3.73;2.83;;;11.70;99.90;;;;;;5066971;28;20519;-73
2023/02/17 12:51:56;;;;;;;3.03;2.60;;;11.80;99.90;;;;;;5056838;28;20908;-73
2023/02/17 12:54:47;;;;;;;5.53;3.10;;;11.80;99.90;;;;;;5063573;28;20566;-73
2023/02/17 12:57:41;;;;;;;3.40;2.70;;;11.90;99.90;;;;;;5064513;28;20793;-73
2023/02/17 13:00:34;;;;;;;3.53;2.83;;;11.80;99.90;;;;;;5065521;28;20446;-73
2023/02/17 13:03:20;;;;;;;3.37;2.77;;;11.90;99.90;;;;;;5059207;28;20484;-73
2023/02/17 13:06:18;;;;;;;5.27;3.10;;;11.90;99.90;;;;;;5062663;28;20458;-72
2023/02/17 13:09:17;;;;;;;5.00;2.77;;;11.90;99.90;;;;;;5068466;28;20562;-73
2023/02/17 13:12:34;;;;;;;11.57;3.30;;;12.00;99.90;;;;;;5063934;28;20785;-73
2023/02/17 13:15:33;;;;;;;4.63;3.10;;;12.00;99.90;;;;;;5059386;28;20453;-72
2023/02/17 13:18:28;;;;;;;6.93;5.17;;;12.10;99.90;;;;;;5064017;28;20413;-73
2023/02/17 13:21:27;;;;;;;5.40;3.40;;;12.00;99.90;;;;;;5065540;28;20496;-74
2023/02/17 13:24:15;;;;;;;5.03;3.00;;;12.10;99.90;;;;;;5075137;28;20912;-74
2023/02/17 13:27:11;;;;;;;2.97;2.40;;;12.10;99.90;;;;;;5063203;28;20425;-74
2023/02/17 13:30:04;;;;;;;3.23;2.40;;;12.20;99.90;;;;;;5067548;28;20404;-74
2023/02/17 13:33:01;;;;;;;4.10;2.60;;;12.20;99.90;;;;;;5062666;28;20505;-73
2023/02/17 13:35:48;;;;;;;3.33;2.40;;;12.20;99.90;;;;;;5067798;28;20589;-73
2023/02/17 13:38:33;;;;;;;4.30;3.53;;;12.20;99.90;;;;;;5076423;28;20788;-73
2023/02/17 13:41:19;;;;;;;4.60;3.37;;;12.20;99.90;;;;;;5070734;28;20541;-73
2023/02/17 13:44:27;;;;;;;2.67;2.20;;;12.20;99.90;;;;;;5067815;28;20435;-74
2023/02/17 13:47:16;;;;;;;4.23;1.87;;;12.20;99.90;;;;;;5067540;28;20935;-73
2023/02/17 13:50:02;;;;;;;4.47;2.33;;;12.30;99.90;;;;;;5080344;28;20464;-74
2023/02/17 13:52:48;;;;;;;5.13;2.30;;;12.20;99.90;;;;;;5064557;28;20496;-74
2023/02/17 13:55:34;;;;;;;3.50;2.90;;;12.30;99.90;;;;;;5065341;28;20528;-74
2023/02/17 13:58:28;;;;;;;3.60;2.90;;;12.30;99.90;;;;;;5060264;28;20430;-73
2023/02/17 14:01:16;;;;;;;8.30;3.10;;;12.30;99.90;;;;;;5061585;28;20454;-73
2023/02/17 14:04:05;;;;;;;5.10;2.10;;;12.30;99.90;;;;;;5064181;28;20446;-73
2023/02/17 14:06:51;;;;;;;4.20;2.40;;;12.30;99.90;;;;;;5064531;28;20496;-73
2023/02/17 14:09:37;;;;;;;4.30;2.50;;;12.30;99.90;;;;;;5062785;28;20679;-73
2023/02/17 14:12:24;;;;;;;3.23;2.30;;;12.30;99.90;;;;;;5062355;28;20413;-73
2023/02/17 14:15:15;;;;;;;6.83;3.07;;;12.40;99.90;;;;;;5065315;28;20466;-73
2023/02/17 14:18:13;;;;;;;6.40;3.10;;;12.40;99.90;;;;;;5058665;28;20582;-73
2023/02/17 14:21:09;;;;;;;4.03;2.40;;;12.40;99.90;;;;;;5062910;28;20450;-73
2023/02/17 14:23:57;;;;;;;9.23;3.07;;;12.30;99.90;;;;;;5067288;28;20470;-74
2023/02/17 14:26:44;;;;;;;6.77;3.00;;;12.30;99.90;;;;;;5065630;28;20462;-73
2023/02/17 14:29:41;;;;;;;4.60;3.00;;;12.30;99.90;;;;;;5064018;28;20475;-73
2023/02/17 14:32:29;;;;;;;5.80;3.17;;;12.30;99.90;;;;;;5067022;28;20481;-73
2023/02/17 14:37:52;;;;;;;6.00;2.90;;;12.20;99.90;;;;;;5058919;28;20823;-74
2023/02/17 14:40:38;;;;;;;4.97;2.90;;;12.20;99.90;;;;;;5077912;28;20472;-74
2023/02/17 14:43:24;;;;;;;5.07;3.33;;;12.20;99.90;;;;;;5070444;28;20878;-74
2023/02/17 14:46:10;;;;;;;5.10;3.10;;;12.20;99.90;;;;;;5051576;28;20463;-75